createdAt,value
2023-05-01T00:01:26.352Z,9.60
2023-05-01T00:04:28.263Z,9.60
2023-05-01T00:07:31.090Z,9.50
2023-05-01T00:10:36.287Z,9.50
2023-05-01T00:13:38.491Z,9.50
2023-05-01T00:16:40.303Z,9.50
2023-05-01T00:19:42.377Z,9.40
2023-05-01T00:22:44.092Z,9.50
2023-05-01T00:25:45.802Z,9.50
2023-05-01T00:28:47.516Z,9.40
2023-05-01T00:31:49.354Z,9.30
2023-05-01T00:34:51.468Z,9.20
2023-05-01T00:37:53.362Z,9.30
2023-05-01T00:40:55.152Z,9.30
2023-05-01T00:43:57.847Z,9.30
2023-05-01T00:47:00.901Z,9.20
2023-05-01T00:50:03.913Z,9.10
2023-05-01T00:53:06.035Z,9.10
2023-05-01T00:56:08.613Z,9.10
2023-05-01T00:59:10.698Z,9.10
2023-05-01T01:02:15.228Z,9.00
2023-05-01T01:05:17.093Z,9.00
2023-05-01T01:08:30.699Z,8.90
2023-05-01T01:11:42.415Z,8.80
2023-05-01T01:15:27.100Z,8.80
2023-05-01T01:18:48.459Z,8.80
2023-05-01T01:21:55.275Z,8.70
2023-05-01T01:25:34.323Z,8.60
2023-05-01T01:28:54.215Z,8.50
2023-05-01T01:32:19.511Z,8.60
2023-05-01T01:35:26.430Z,8.50
2023-05-01T01:38:43.582Z,8.40
2023-05-01T01:41:51.073Z,8.30
2023-05-01T01:44:55.787Z,8.30
2023-05-01T01:47:57.597Z,8.30
2023-05-01T01:51:00.957Z,8.30
2023-05-01T01:54:04.766Z,8.20
2023-05-01T01:57:08.406Z,8.20
2023-05-01T02:00:12.621Z,8.20
2023-05-01T02:03:24.203Z,8.30
2023-05-01T02:06:26.799Z,8.20
2023-05-01T02:09:30.286Z,8.10
2023-05-01T02:12:33.169Z,8.10
2023-05-01T02:15:40.707Z,8.90
2023-05-01T02:18:44.717Z,8.20
2023-05-01T02:21:48.379Z,8.30
2023-05-01T02:24:50.572Z,8.30
2023-05-01T02:28:07.868Z,8.40
2023-05-01T02:31:10.398Z,8.30
2023-05-01T02:34:12.397Z,9.40
2023-05-01T02:37:14.312Z,8.50
2023-05-01T02:40:18.898Z,8.60
2023-05-01T02:43:22.853Z,10.30
2023-05-01T02:46:29.272Z,8.70
2023-05-01T02:49:32.468Z,9.20
2023-05-01T02:52:35.092Z,8.70
2023-05-01T02:55:59.374Z,9.40
2023-05-01T02:59:01.402Z,9.80
2023-05-01T03:02:03.826Z,10.00
2023-05-01T03:05:06.310Z,8.80
2023-05-01T03:08:08.288Z,8.80
2023-05-01T03:11:10.135Z,9.40
2023-05-01T03:14:14.880Z,8.90
2023-05-01T03:17:16.869Z,8.80
2023-05-01T03:20:18.636Z,8.90
2023-05-01T03:23:21.257Z,8.80
2023-05-01T03:26:23.294Z,8.80
2023-05-01T03:29:26.003Z,8.80
2023-05-01T03:32:29.713Z,8.80
2023-05-01T03:35:32.619Z,8.80
2023-05-01T03:38:36.699Z,8.80
2023-05-01T03:41:44.619Z,8.80
2023-05-01T03:44:55.755Z,8.80
2023-05-01T03:47:58.743Z,8.70
2023-05-01T03:51:00.651Z,9.50
2023-05-01T03:54:03.360Z,8.70
2023-05-01T03:57:12.701Z,9.20
2023-05-01T04:00:14.968Z,8.70
2023-05-01T04:03:21.997Z,8.70
2023-05-01T04:06:27.302Z,8.70
2023-05-01T04:09:30.066Z,8.60
2023-05-01T04:12:33.273Z,8.60
2023-05-01T04:15:35.391Z,8.60
2023-05-01T04:18:37.750Z,8.70
2023-05-01T04:21:39.456Z,8.70
2023-05-01T04:24:41.409Z,8.60
2023-05-01T04:27:43.664Z,8.70
2023-05-01T04:30:46.703Z,9.40
2023-05-01T04:33:48.919Z,8.80
2023-05-01T04:36:52.088Z,10.00
2023-05-01T04:39:55.680Z,8.80
2023-05-01T04:42:58.988Z,8.80
2023-05-01T04:46:01.210Z,9.70
2023-05-01T04:49:03.070Z,9.80
2023-05-01T04:52:04.926Z,8.80
2023-05-01T04:55:19.150Z,8.80
2023-05-01T04:58:44.469Z,9.00
2023-05-01T05:01:50.657Z,10.30
2023-05-01T05:04:54.156Z,9.80
2023-05-01T05:07:56.261Z,8.90
2023-05-01T05:11:10.870Z,8.90
2023-05-01T05:14:33.434Z,9.90
2023-05-01T05:17:35.743Z,9.00
2023-05-01T05:20:40.877Z,9.10
2023-05-01T05:23:43.361Z,9.00
2023-05-01T05:26:45.420Z,10.10
2023-05-01T05:29:47.490Z,9.20
2023-05-01T05:32:49.827Z,9.20
2023-05-01T05:35:52.635Z,9.20
2023-05-01T05:38:59.200Z,9.30
2023-05-01T05:42:03.840Z,9.30
2023-05-01T05:45:07.306Z,10.60
2023-05-01T05:48:09.633Z,9.30
2023-05-01T05:51:14.592Z,9.40
2023-05-01T05:54:16.792Z,10.70
2023-05-01T05:57:20.588Z,9.60
2023-05-01T06:00:25.462Z,9.70
2023-05-01T06:03:27.952Z,9.70
2023-05-01T06:06:34.721Z,9.90
2023-05-01T06:09:37.448Z,10.10
2023-05-01T06:12:41.672Z,11.50
2023-05-01T06:15:54.438Z,10.30
2023-05-01T06:18:56.401Z,11.20
2023-05-01T06:21:58.528Z,10.50
2023-05-01T06:25:01.645Z,10.50
2023-05-01T06:28:05.735Z,10.70
2023-05-01T06:31:09.218Z,12.50
2023-05-01T06:34:16.263Z,11.90
2023-05-01T06:37:25.912Z,10.90
2023-05-01T06:40:27.918Z,11.00
2023-05-01T06:43:31.162Z,11.00
2023-05-01T06:46:33.349Z,12.00
2023-05-01T06:49:35.923Z,11.10
2023-05-01T06:52:37.696Z,11.10
2023-05-01T06:55:41.028Z,11.60
2023-05-01T06:58:43.090Z,11.20
2023-05-01T07:01:45.393Z,11.60
2023-05-01T07:04:47.182Z,12.60
2023-05-01T07:07:57.936Z,12.10
2023-05-01T07:11:03.150Z,12.60
2023-05-01T07:14:05.018Z,11.70
2023-05-01T07:17:07.166Z,12.80
2023-05-01T07:20:10.375Z,12.40
2023-05-01T07:23:12.386Z,12.10
2023-05-01T07:26:14.430Z,12.10
2023-05-01T07:29:16.816Z,12.90
2023-05-01T07:32:18.617Z,12.30
2023-05-01T07:35:20.630Z,12.30
2023-05-01T07:38:22.396Z,13.40
2023-05-01T07:41:25.601Z,13.30
2023-05-01T07:44:27.700Z,13.10
2023-05-01T07:47:30.151Z,13.50
2023-05-01T07:50:32.750Z,13.70
2023-05-01T07:53:34.889Z,14.10
2023-05-01T07:56:36.614Z,14.10
2023-05-01T07:59:38.385Z,13.40
2023-05-01T08:02:41.531Z,14.60
2023-05-01T08:05:43.657Z,13.40
2023-05-01T08:08:45.537Z,13.40
2023-05-01T08:11:47.482Z,14.90
2023-05-01T08:14:49.477Z,13.90
2023-05-01T08:17:51.863Z,14.30
2023-05-01T08:20:53.654Z,13.80
2023-05-01T08:23:56.587Z,13.80
2023-05-01T08:26:58.460Z,15.10
2023-05-01T08:33:15.159Z,14.50
2023-05-01T08:36:17.281Z,14.60
2023-05-01T08:39:19.916Z,14.70
2023-05-01T08:42:21.713Z,14.90
2023-05-01T08:45:25.426Z,15.00
2023-05-01T08:48:29.362Z,15.20
2023-05-01T08:51:33.265Z,15.20
2023-05-01T08:54:36.692Z,15.50
2023-05-01T08:57:39.341Z,15.70
2023-05-01T09:00:42.781Z,15.80
2023-05-01T09:03:45.741Z,16.10
2023-05-01T09:06:47.591Z,16.20
2023-05-01T09:09:49.353Z,16.10
2023-05-01T09:13:00.769Z,16.20
2023-05-01T09:16:04.470Z,16.30
2023-05-01T09:19:06.215Z,16.30
2023-05-01T09:22:09.482Z,16.40
2023-05-01T09:25:11.657Z,16.70
2023-05-01T09:28:13.352Z,16.60
2023-05-01T09:31:29.632Z,16.60
2023-05-01T09:34:31.557Z,16.80
2023-05-01T09:37:34.849Z,17.30
2023-05-01T09:40:36.724Z,17.20
2023-05-01T09:43:39.121Z,17.40
2023-05-01T09:46:44.405Z,17.90
2023-05-01T09:49:50.186Z,17.80
2023-05-01T09:52:52.651Z,18.30
2023-05-01T09:56:01.621Z,18.90
2023-05-01T09:59:16.508Z,18.80
2023-05-01T10:02:30.725Z,18.30
2023-05-01T10:05:44.251Z,18.60
2023-05-01T10:08:47.541Z,18.60
2023-05-01T10:11:55.773Z,18.50
2023-05-01T10:14:57.845Z,18.50
2023-05-01T10:18:00.021Z,18.80
2023-05-01T10:21:03.020Z,19.10
2023-05-01T10:24:05.852Z,19.70
2023-05-01T10:27:08.597Z,20.50
2023-05-01T10:30:10.864Z,20.90
2023-05-01T10:33:15.762Z,21.50
2023-05-01T10:36:43.482Z,21.60
2023-05-01T10:39:45.257Z,21.90
2023-05-01T10:43:16.096Z,21.80
2023-05-01T10:46:20.962Z,21.30
2023-05-01T10:49:22.863Z,21.60
2023-05-01T10:52:24.587Z,21.40
2023-05-01T10:55:36.779Z,21.80
2023-05-01T10:58:38.589Z,21.70
2023-05-01T11:01:48.559Z,21.80
2023-05-01T11:04:51.693Z,21.60
2023-05-01T11:08:31.550Z,21.20
2023-05-01T11:11:33.232Z,21.10
2023-05-01T11:14:53.728Z,21.40
2023-05-01T11:17:56.181Z,21.90
2023-05-01T11:20:58.241Z,21.50
2023-05-01T11:24:09.522Z,21.60
2023-05-01T11:27:13.679Z,21.80
2023-05-01T11:30:16.211Z,21.60
2023-05-01T11:33:23.295Z,21.80
2023-05-01T11:36:26.933Z,22.00
2023-05-01T11:39:29.017Z,22.30
2023-05-01T11:42:30.803Z,22.50
2023-05-01T11:45:34.841Z,21.70
2023-05-01T11:48:37.109Z,22.00
2023-05-01T11:51:39.005Z,21.60
2023-05-01T11:54:49.788Z,21.80
2023-05-01T11:57:53.410Z,21.60
2023-05-01T12:00:55.184Z,21.90
2023-05-01T12:03:57.384Z,22.00
2023-05-01T12:06:59.430Z,22.00
2023-05-01T12:10:01.310Z,21.60
2023-05-01T12:13:08.073Z,21.20
2023-05-01T12:16:10.689Z,21.10
2023-05-01T12:19:15.919Z,20.60
2023-05-01T12:22:18.334Z,20.70
2023-05-01T12:25:20.090Z,20.50
2023-05-01T12:28:22.100Z,20.30
2023-05-01T12:31:25.375Z,20.20
2023-05-01T12:34:33.288Z,20.00
2023-05-01T12:37:35.270Z,19.90
2023-05-01T12:40:37.991Z,19.80
2023-05-01T12:43:39.779Z,19.50
2023-05-01T12:46:42.314Z,19.50
2023-05-01T12:49:44.200Z,19.40
2023-05-01T12:52:46.112Z,19.30
2023-05-01T12:55:50.379Z,19.30
2023-05-01T12:58:53.554Z,19.30
2023-05-01T13:02:03.577Z,19.30
2023-05-01T13:05:07.680Z,19.30
2023-05-01T13:08:09.425Z,19.30
2023-05-01T13:11:16.144Z,19.40
2023-05-01T13:14:17.967Z,19.20
2023-05-01T13:17:31.349Z,19.40
2023-05-01T13:20:33.225Z,19.30
2023-05-01T13:23:36.336Z,19.20
2023-05-01T13:26:38.231Z,19.20
2023-05-01T13:29:45.486Z,19.20
2023-05-01T13:32:47.673Z,19.20
2023-05-01T13:35:49.430Z,19.30
2023-05-01T13:38:54.089Z,19.40
2023-05-01T13:41:55.997Z,19.60
2023-05-01T13:44:58.122Z,19.90
2023-05-01T13:48:00.154Z,20.50
2023-05-01T13:51:02.011Z,21.70
2023-05-01T13:54:04.463Z,22.60
2023-05-01T13:57:06.255Z,22.90
2023-05-01T14:00:10.637Z,22.80
2023-05-01T14:03:16.292Z,22.40
2023-05-01T14:06:19.918Z,21.30
2023-05-01T14:09:22.016Z,20.90
2023-05-01T14:12:33.960Z,20.60
2023-05-01T14:15:35.999Z,20.50
2023-05-01T14:18:48.235Z,20.30
2023-05-01T14:21:49.979Z,20.10
2023-05-01T14:24:51.755Z,20.00
2023-05-01T14:27:54.969Z,19.90
2023-05-01T14:30:56.762Z,19.60
2023-05-01T14:34:01.138Z,19.50
2023-05-01T14:37:02.845Z,19.40
2023-05-01T14:40:13.765Z,19.30
2023-05-01T14:43:20.076Z,19.30
2023-05-01T14:46:33.307Z,19.10
2023-05-01T14:49:35.740Z,19.00
2023-05-01T14:52:39.151Z,18.80
2023-05-01T14:55:41.821Z,18.80
2023-05-01T14:58:43.588Z,18.80
2023-05-01T15:01:45.474Z,18.60
2023-05-01T15:04:47.350Z,18.40
2023-05-01T15:07:49.186Z,18.40
2023-05-01T15:10:52.832Z,18.30
2023-05-01T15:13:54.716Z,18.10
2023-05-01T15:16:56.519Z,17.70
2023-05-01T15:19:58.317Z,17.20
2023-05-01T15:23:00.015Z,16.50
2023-05-01T15:26:01.831Z,16.40
2023-05-01T15:29:03.566Z,16.10
2023-05-01T15:32:12.392Z,15.90
2023-05-01T15:35:14.735Z,15.90
2023-05-01T15:38:16.807Z,15.70
2023-05-01T15:41:19.281Z,15.00
2023-05-01T15:44:21.129Z,14.80
2023-05-01T15:47:22.982Z,14.70
2023-05-01T15:50:24.728Z,14.60
2023-05-01T15:53:26.450Z,14.40
2023-05-01T15:56:28.842Z,14.60
2023-05-01T15:59:30.788Z,14.10
2023-05-01T16:02:32.748Z,14.10
2023-05-01T16:05:37.130Z,14.10
2023-05-01T16:08:39.271Z,14.00
2023-05-01T16:11:41.012Z,14.00
2023-05-01T16:14:42.845Z,14.00
2023-05-01T16:17:46.374Z,14.10
2023-05-01T16:20:48.267Z,14.10
2023-05-01T16:23:51.566Z,14.10
2023-05-01T16:26:53.353Z,14.00
2023-05-01T16:29:55.184Z,14.10
2023-05-01T16:32:56.987Z,14.00
2023-05-01T16:35:59.562Z,14.10
2023-05-01T16:39:01.299Z,14.00
2023-05-01T16:42:03.178Z,14.10
2023-05-01T16:45:08.563Z,14.10
2023-05-01T16:48:10.662Z,13.80
2023-05-01T16:51:12.367Z,13.60
2023-05-01T16:54:14.957Z,13.90
2023-05-01T16:57:17.149Z,13.70
2023-05-01T17:00:19.569Z,13.90
2023-05-01T17:03:21.259Z,13.90
2023-05-01T17:06:23.020Z,14.00
2023-05-01T17:09:24.781Z,13.90
2023-05-01T17:12:30.565Z,14.00
2023-05-01T17:15:32.534Z,14.20
2023-05-01T17:18:34.545Z,14.20
2023-05-01T17:21:36.249Z,14.20
2023-05-01T17:24:38.227Z,14.40
2023-05-01T17:27:40.072Z,14.20
2023-05-01T17:30:41.763Z,14.10
2023-05-01T17:33:43.481Z,14.10
2023-05-01T17:36:45.426Z,14.10
2023-05-01T17:39:47.104Z,13.90
2023-05-01T17:42:48.862Z,13.70
2023-05-01T17:45:50.603Z,13.60
2023-05-01T17:48:52.541Z,13.90
2023-05-01T17:51:54.258Z,13.90
2023-05-01T17:54:56.001Z,13.80
2023-05-01T17:57:57.813Z,13.80
2023-05-01T18:00:59.532Z,13.80
2023-05-01T18:04:01.427Z,13.60
2023-05-01T18:07:03.544Z,13.70
2023-05-01T18:10:05.737Z,13.60
2023-05-01T18:13:07.519Z,13.50
2023-05-01T18:16:09.908Z,13.60
2023-05-01T18:19:12.841Z,13.30
2023-05-01T18:22:14.892Z,13.40
2023-05-01T18:25:17.147Z,13.40
2023-05-01T18:28:19.086Z,13.30
2023-05-01T18:31:20.930Z,13.20
2023-05-01T18:34:22.657Z,13.10
2023-05-01T18:37:25.807Z,13.10
2023-05-01T18:40:27.695Z,13.10
2023-05-01T18:43:29.377Z,13.00
2023-05-01T18:46:31.159Z,13.00
2023-05-01T18:49:32.883Z,13.00
2023-05-01T18:52:36.890Z,12.90
2023-05-01T18:55:38.585Z,12.90
2023-05-01T18:58:40.263Z,13.00
2023-05-01T19:01:41.996Z,12.90
2023-05-01T19:04:56.592Z,12.90
2023-05-01T19:08:01.789Z,12.80
2023-05-01T19:11:04.813Z,12.80
2023-05-01T19:14:06.499Z,12.90
2023-05-01T19:17:08.498Z,12.90
2023-05-01T19:20:10.535Z,12.80
2023-05-01T19:23:12.374Z,12.90
2023-05-01T19:26:14.169Z,12.80
2023-05-01T19:29:15.828Z,12.80
2023-05-01T19:32:17.980Z,12.80
2023-05-01T19:35:19.684Z,12.80
2023-05-01T19:38:21.730Z,12.80
2023-05-01T19:41:23.454Z,12.80
2023-05-01T19:44:25.522Z,12.70
2023-05-01T19:47:27.304Z,12.80
2023-05-01T19:50:28.986Z,12.90
2023-05-01T19:53:31.200Z,12.90
2023-05-01T19:56:32.945Z,12.80
2023-05-01T19:59:38.624Z,12.80
2023-05-01T20:02:41.493Z,12.80
2023-05-01T20:05:43.344Z,12.80
2023-05-01T20:08:45.035Z,12.80
2023-05-01T20:11:46.726Z,12.80
2023-05-01T20:14:48.852Z,12.90
2023-05-01T20:17:50.601Z,12.70
2023-05-01T20:20:52.302Z,12.70
2023-05-01T20:23:54.907Z,12.70
2023-05-01T20:26:59.263Z,12.70
2023-05-01T20:30:01.534Z,12.70
2023-05-01T20:33:03.555Z,12.70
2023-05-01T20:36:06.573Z,12.50
2023-05-01T20:39:08.279Z,12.40
2023-05-01T20:42:10.038Z,12.50
2023-05-01T20:45:11.918Z,12.40
2023-05-01T20:48:13.647Z,12.20
2023-05-01T20:51:18.196Z,12.10
2023-05-01T20:54:19.852Z,12.20
2023-05-01T20:57:21.732Z,12.10
2023-05-01T21:00:23.424Z,12.10
2023-05-01T21:03:25.192Z,12.20
2023-05-01T21:06:27.210Z,12.20
2023-05-01T21:09:28.931Z,12.20
2023-05-01T21:12:30.606Z,12.30
2023-05-01T21:15:33.774Z,12.30
2023-05-01T21:18:36.229Z,12.20
2023-05-01T21:21:38.917Z,12.10
2023-05-01T21:24:43.943Z,12.30
2023-05-01T21:27:45.791Z,12.20
2023-05-01T21:30:49.283Z,12.20
2023-05-01T21:33:51.036Z,12.30
2023-05-01T21:36:52.921Z,12.20
2023-05-01T21:39:56.840Z,12.20
2023-05-01T21:43:00.261Z,12.20
2023-05-01T21:46:02.647Z,12.20
2023-05-01T21:49:04.605Z,12.20
2023-05-01T21:52:08.732Z,12.20
2023-05-01T21:55:17.268Z,12.10
2023-05-01T21:58:19.033Z,12.10
2023-05-01T22:01:22.140Z,12.10
2023-05-01T22:04:23.892Z,12.10
2023-05-01T22:07:25.719Z,12.10
2023-05-01T22:10:27.493Z,12.10
2023-05-01T22:13:33.239Z,12.10
2023-05-01T22:16:35.015Z,12.10
2023-05-01T22:19:37.784Z,12.00
2023-05-01T22:22:41.379Z,12.10
2023-05-01T22:25:43.021Z,12.00
2023-05-01T22:28:45.276Z,12.00
2023-05-01T22:31:46.953Z,12.00
2023-05-01T22:34:48.689Z,12.00
2023-05-01T22:37:50.445Z,12.00
2023-05-01T22:40:52.198Z,12.00
2023-05-01T22:43:53.986Z,12.10
2023-05-01T22:46:55.846Z,12.10
2023-05-01T22:49:57.788Z,11.90
2023-05-01T22:53:00.338Z,11.90
2023-05-01T22:56:02.046Z,11.70
2023-05-01T22:59:03.726Z,11.50
2023-05-01T23:02:05.498Z,11.50
2023-05-01T23:05:08.162Z,11.50
2023-05-01T23:08:10.043Z,11.30
2023-05-01T23:11:15.497Z,11.10
2023-05-01T23:14:18.156Z,11.00
2023-05-01T23:17:19.942Z,11.00
2023-05-01T23:20:23.813Z,11.10
2023-05-01T23:23:30.860Z,11.30
2023-05-01T23:26:32.971Z,11.30
2023-05-01T23:29:35.054Z,11.40
2023-05-01T23:32:40.080Z,11.30
2023-05-01T23:35:41.807Z,11.30
2023-05-01T23:38:43.599Z,11.30
2023-05-01T23:41:45.381Z,11.20
2023-05-01T23:44:47.277Z,11.10
2023-05-01T23:47:48.998Z,11.10
2023-05-01T23:50:50.916Z,12.70
2023-05-01T23:53:52.618Z,10.80
2023-05-01T23:56:54.459Z,10.90
2023-05-01T23:59:56.570Z,11.00
